createdAt,value
2023-09-23T00:00:27.855Z,1012.99
2023-09-23T00:01:28.740Z,1012.97
2023-09-23T00:02:29.711Z,1012.97
2023-09-23T00:03:30.649Z,1012.97
2023-09-23T00:04:31.201Z,1012.98
2023-09-23T00:05:31.619Z,1012.98
2023-09-23T00:06:32.477Z,1012.97
2023-09-23T00:07:33.397Z,1012.98
2023-09-23T00:08:34.283Z,1012.97
2023-09-23T00:09:35.163Z,1012.97
2023-09-23T00:10:36.049Z,1012.95
2023-09-23T00:11:36.893Z,1012.97
2023-09-23T00:12:37.789Z,1012.98
2023-09-23T00:13:38.666Z,1012.97
2023-09-23T00:14:39.534Z,1012.98
2023-09-23T00:15:40.405Z,1012.96
2023-09-23T00:16:41.326Z,1012.96
2023-09-23T00:17:42.365Z,1012.95
2023-09-23T00:18:42.752Z,1012.93
2023-09-23T00:19:43.687Z,1012.92
2023-09-23T00:20:44.506Z,1012.91
2023-09-23T00:21:45.373Z,1012.91
2023-09-23T00:22:46.343Z,1012.92
2023-09-23T00:23:47.219Z,1012.93
2023-09-23T00:24:48.118Z,1012.97
2023-09-23T00:25:49.047Z,1013.02
2023-09-23T00:26:49.933Z,1013.06
2023-09-23T00:27:50.822Z,1013.09
2023-09-23T00:28:51.717Z,1013.08
2023-09-23T00:29:52.571Z,1013.04
2023-09-23T00:30:53.528Z,1013.03
2023-09-23T00:31:54.412Z,1013.04
2023-09-23T00:32:55.408Z,1013.03
2023-09-23T00:33:55.810Z,1013.06
2023-09-23T00:34:56.739Z,1013.03
2023-09-23T00:35:57.584Z,1013.00
2023-09-23T00:36:58.470Z,1012.98
2023-09-23T00:37:59.370Z,1012.93
2023-09-23T00:39:00.232Z,1012.96
2023-09-23T00:40:01.193Z,1012.99
2023-09-23T00:41:02.086Z,1013.03
2023-09-23T00:42:02.942Z,1013.03
2023-09-23T00:43:03.824Z,1013.02
2023-09-23T00:44:04.739Z,1012.95
2023-09-23T00:45:05.585Z,1012.88
2023-09-23T00:46:06.479Z,1012.83
2023-09-23T00:47:07.408Z,1012.79
2023-09-23T00:48:08.240Z,1012.79
2023-09-23T00:49:09.122Z,1012.77
2023-09-23T00:50:10.050Z,1012.81
2023-09-23T00:51:10.917Z,1012.85
2023-09-23T00:52:11.826Z,1012.89
2023-09-23T00:53:12.760Z,1012.91
2023-09-23T00:54:13.670Z,1012.97
2023-09-23T00:55:14.572Z,1013.02
2023-09-23T00:56:15.454Z,1013.03
2023-09-23T00:57:16.319Z,1013.03
2023-09-23T00:58:17.214Z,1013.04
2023-09-23T00:59:18.151Z,1013.09
2023-09-23T01:00:18.650Z,1013.16
2023-09-23T01:01:19.710Z,1013.18
2023-09-23T01:02:20.156Z,1013.20
2023-09-23T01:03:21.130Z,1013.24
2023-09-23T01:04:21.566Z,1013.25
2023-09-23T01:05:22.446Z,1013.25
2023-09-23T01:06:23.340Z,1013.26
2023-09-23T01:07:24.252Z,1013.26
2023-09-23T01:08:25.079Z,1013.28
2023-09-23T01:09:25.966Z,1013.30
2023-09-23T01:10:26.867Z,1013.35
2023-09-23T01:11:27.729Z,1013.34
2023-09-23T01:12:28.598Z,1013.33
2023-09-23T01:13:29.484Z,1013.38
2023-09-23T01:14:30.448Z,1013.37
2023-09-23T01:15:31.339Z,1013.39
2023-09-23T01:16:32.207Z,1013.42
2023-09-23T01:17:33.151Z,1013.43
2023-09-23T01:18:34.039Z,1013.44
2023-09-23T01:19:34.919Z,1013.44
2023-09-23T01:20:35.807Z,1013.44
2023-09-23T01:21:36.695Z,1013.42
2023-09-23T01:22:37.681Z,1013.45
2023-09-23T01:23:38.536Z,1013.45
2023-09-23T01:24:39.425Z,1013.45
2023-09-23T01:25:40.346Z,1013.43
2023-09-23T01:26:41.226Z,1013.43
2023-09-23T01:27:42.119Z,1013.44
2023-09-23T01:28:42.993Z,1013.48
2023-09-23T01:29:43.866Z,1013.46
2023-09-23T01:30:44.738Z,1013.47
2023-09-23T01:31:45.728Z,1013.46
2023-09-23T01:32:46.617Z,1013.47
2023-09-23T01:33:47.516Z,1013.49
2023-09-23T01:34:48.625Z,1013.48
2023-09-23T01:35:48.993Z,1013.50
2023-09-23T01:36:49.861Z,1013.48
2023-09-23T01:37:50.770Z,1013.53
2023-09-23T01:38:51.646Z,1013.56
2023-09-23T01:39:52.521Z,1013.59
2023-09-23T01:40:53.418Z,1013.62
2023-09-23T01:41:54.268Z,1013.61
2023-09-23T01:42:55.143Z,1013.60
2023-09-23T01:43:56.059Z,1013.61
2023-09-23T01:44:56.923Z,1013.59
2023-09-23T01:45:57.803Z,1013.59
2023-09-23T01:46:58.800Z,1013.60
2023-09-23T01:47:59.707Z,1013.62
2023-09-23T01:49:00.210Z,1013.62
2023-09-23T01:50:01.166Z,1013.65
2023-09-23T01:51:02.341Z,1013.68
2023-09-23T01:52:02.722Z,1013.72
2023-09-23T01:53:03.636Z,1013.75
2023-09-23T01:54:04.484Z,1013.76
2023-09-23T01:55:05.355Z,1013.79
2023-09-23T01:56:06.286Z,1013.80
2023-09-23T01:57:07.119Z,1013.79
2023-09-23T01:58:07.996Z,1013.79
2023-09-23T01:59:08.910Z,1013.75
2023-09-23T02:00:09.769Z,1013.79
2023-09-23T02:01:10.701Z,1013.79
2023-09-23T02:02:11.609Z,1013.81
2023-09-23T02:03:12.480Z,1013.78
2023-09-23T02:04:13.335Z,1013.78
2023-09-23T02:05:14.263Z,1013.78
2023-09-23T02:06:15.169Z,1013.82
2023-09-23T02:07:16.047Z,1013.82
2023-09-23T02:08:16.984Z,1013.82
2023-09-23T02:09:17.546Z,1013.81
2023-09-23T02:10:18.454Z,1013.77
2023-09-23T02:11:19.374Z,1013.77
2023-09-23T02:12:20.224Z,1013.76
2023-09-23T02:13:21.092Z,1013.79
2023-09-23T02:14:21.960Z,1013.78
2023-09-23T02:15:22.830Z,1013.77
2023-09-23T02:16:23.749Z,1013.76
2023-09-23T02:17:24.594Z,1013.73
2023-09-23T02:18:25.598Z,1013.69
2023-09-23T02:19:26.424Z,1013.65
2023-09-23T02:20:27.305Z,1013.61
2023-09-23T02:21:28.182Z,1013.55
2023-09-23T02:22:29.065Z,1013.52
2023-09-23T02:23:29.965Z,1013.52
2023-09-23T02:24:30.826Z,1013.52
2023-09-23T02:25:31.694Z,1013.51
2023-09-23T02:26:32.598Z,1013.51
2023-09-23T02:27:33.493Z,1013.52
2023-09-23T02:28:34.332Z,1013.51
2023-09-23T02:29:35.203Z,1013.53
2023-09-23T02:30:36.111Z,1013.50
2023-09-23T02:31:36.962Z,1013.49
2023-09-23T02:32:37.877Z,1013.50
2023-09-23T02:33:38.717Z,1013.49
2023-09-23T02:34:39.640Z,1013.50
2023-09-23T02:35:40.568Z,1013.51
2023-09-23T02:36:41.425Z,1013.50
2023-09-23T02:37:42.352Z,1013.51
2023-09-23T02:38:43.282Z,1013.54
2023-09-23T02:39:44.096Z,1013.55
2023-09-23T02:40:45.020Z,1013.58
2023-09-23T02:41:45.876Z,1013.60
2023-09-23T02:42:46.728Z,1013.63
2023-09-23T02:43:47.636Z,1013.64
2023-09-23T02:44:48.488Z,1013.63
2023-09-23T02:45:49.361Z,1013.61
2023-09-23T02:46:50.316Z,1013.59
2023-09-23T02:47:51.204Z,1013.61
2023-09-23T02:48:52.073Z,1013.63
2023-09-23T02:49:53.018Z,1013.69
2023-09-23T02:50:53.874Z,1013.72
2023-09-23T02:51:54.789Z,1013.70
2023-09-23T02:52:55.705Z,1013.69
2023-09-23T02:53:56.548Z,1013.72
2023-09-23T02:54:57.460Z,1013.72
2023-09-23T02:55:58.346Z,1013.77
2023-09-23T02:56:59.212Z,1013.77
2023-09-23T02:58:00.062Z,1013.76
2023-09-23T02:59:00.968Z,1013.77
2023-09-23T03:00:01.855Z,1013.77
2023-09-23T03:01:02.730Z,1013.77
2023-09-23T03:02:03.657Z,1013.76
2023-09-23T03:03:04.560Z,1013.76
2023-09-23T03:04:05.547Z,1013.76
2023-09-23T03:05:06.057Z,1013.75
2023-09-23T03:06:06.975Z,1013.76
2023-09-23T03:07:07.828Z,1013.77
2023-09-23T03:08:08.855Z,1013.81
2023-09-23T03:09:09.244Z,1013.82
2023-09-23T03:10:10.126Z,1013.81
2023-09-23T03:11:11.113Z,1013.76
2023-09-23T03:12:11.615Z,1013.75
2023-09-23T03:13:12.738Z,1013.73
2023-09-23T03:14:13.196Z,1013.72
2023-09-23T03:15:14.046Z,1013.69
2023-09-23T03:16:14.994Z,1013.71
2023-09-23T03:17:15.881Z,1013.70
2023-09-23T03:18:17.339Z,1013.71
2023-09-23T03:19:17.240Z,1013.70
2023-09-23T03:20:18.168Z,1013.71
2023-09-23T03:21:19.017Z,1013.71
2023-09-23T03:22:19.895Z,1013.71
2023-09-23T03:23:20.809Z,1013.69
2023-09-23T03:24:21.666Z,1013.69
2023-09-23T03:25:22.576Z,1013.68
2023-09-23T03:26:23.487Z,1013.68
2023-09-23T03:27:24.416Z,1013.68
2023-09-23T03:28:25.273Z,1013.67
2023-09-23T03:29:26.201Z,1013.69
2023-09-23T03:30:27.049Z,1013.71
2023-09-23T03:31:27.921Z,1013.74
2023-09-23T03:32:28.926Z,1013.73
2023-09-23T03:33:29.328Z,1013.77
2023-09-23T03:34:30.215Z,1013.75
2023-09-23T03:35:31.086Z,1013.77
2023-09-23T03:36:31.962Z,1013.77
2023-09-23T03:37:32.833Z,1013.75
2023-09-23T03:38:33.723Z,1013.74
2023-09-23T03:39:34.600Z,1013.77
2023-09-23T03:40:35.484Z,1013.76
2023-09-23T03:41:36.349Z,1013.79
2023-09-23T03:42:37.249Z,1013.82
2023-09-23T03:43:38.109Z,1013.85
2023-09-23T03:44:39.010Z,1013.88
2023-09-23T03:45:39.946Z,1013.92
2023-09-23T03:46:40.862Z,1013.98
2023-09-23T03:47:41.723Z,1014.01
2023-09-23T03:48:42.585Z,1014.05
2023-09-23T03:49:43.470Z,1014.05
2023-09-23T03:50:44.333Z,1014.10
2023-09-23T03:51:45.210Z,1014.13
2023-09-23T03:52:46.163Z,1014.15
2023-09-23T03:53:47.056Z,1014.16
2023-09-23T03:54:47.938Z,1014.17
2023-09-23T03:55:48.863Z,1014.20
2023-09-23T03:56:49.742Z,1014.20
2023-09-23T03:57:50.628Z,1014.19
2023-09-23T03:58:51.523Z,1014.19
2023-09-23T03:59:52.378Z,1014.18
2023-09-23T04:00:53.252Z,1014.17
2023-09-23T04:01:54.164Z,1014.18
2023-09-23T04:02:55.052Z,1014.19
2023-09-23T04:03:55.974Z,1014.21
2023-09-23T04:04:56.813Z,1014.21
2023-09-23T04:05:57.682Z,1014.20
2023-09-23T04:06:58.570Z,1014.22
2023-09-23T04:07:59.564Z,1014.25
2023-09-23T04:08:59.981Z,1014.26
2023-09-23T04:10:00.818Z,1014.29
2023-09-23T04:11:01.723Z,1014.31
2023-09-23T04:12:02.661Z,1014.37
2023-09-23T04:13:03.514Z,1014.38
2023-09-23T04:14:04.417Z,1014.42
2023-09-23T04:15:05.291Z,1014.46
2023-09-23T04:16:06.231Z,1014.48
2023-09-23T04:17:07.109Z,1014.49
2023-09-23T04:18:08.011Z,1014.52
2023-09-23T04:19:08.874Z,1014.53
2023-09-23T04:20:09.792Z,1014.53
2023-09-23T04:21:10.659Z,1014.53
2023-09-23T04:22:11.544Z,1014.54
2023-09-23T04:23:12.476Z,1014.57
2023-09-23T04:24:13.323Z,1014.61
2023-09-23T04:25:14.204Z,1014.62
2023-09-23T04:26:15.132Z,1014.65
2023-09-23T04:27:15.970Z,1014.66
2023-09-23T04:28:16.867Z,1014.67
2023-09-23T04:29:17.832Z,1014.66
2023-09-23T04:30:18.694Z,1014.66
2023-09-23T04:31:19.550Z,1014.66
2023-09-23T04:32:20.474Z,1014.66
2023-09-23T04:33:21.459Z,1014.64
2023-09-23T04:34:21.894Z,1014.64
2023-09-23T04:35:22.844Z,1014.64
2023-09-23T04:36:23.738Z,1014.58
2023-09-23T04:37:24.601Z,1014.57
2023-09-23T04:38:25.508Z,1014.57
2023-09-23T04:39:26.382Z,1014.59
2023-09-23T04:40:27.357Z,1014.62
2023-09-23T04:41:28.208Z,1014.64
2023-09-23T04:42:29.086Z,1014.67
2023-09-23T04:43:29.981Z,1014.68
2023-09-23T04:44:30.830Z,1014.65
2023-09-23T04:45:31.820Z,1014.69
2023-09-23T04:46:32.671Z,1014.71
2023-09-23T04:47:33.551Z,1014.71
2023-09-23T04:48:34.443Z,1014.72
2023-09-23T04:49:35.301Z,1014.74
2023-09-23T04:50:36.181Z,1014.77
2023-09-23T04:51:37.008Z,1014.78
2023-09-23T04:52:37.879Z,1014.78
2023-09-23T04:53:38.766Z,1014.80
2023-09-23T04:54:39.663Z,1014.83
2023-09-23T04:55:40.541Z,1014.85
2023-09-23T04:56:41.373Z,1014.90
2023-09-23T04:57:42.189Z,1014.90
2023-09-23T04:58:43.125Z,1014.92
2023-09-23T04:59:43.970Z,1014.93
2023-09-23T05:00:44.787Z,1014.92
2023-09-23T05:01:47.089Z,1014.93
2023-09-23T05:02:46.474Z,1014.93
2023-09-23T05:03:47.342Z,1014.90
2023-09-23T05:04:48.270Z,1014.91
2023-09-23T05:05:49.129Z,1014.90
2023-09-23T05:06:49.915Z,1014.91
2023-09-23T05:07:50.782Z,1014.94
2023-09-23T05:08:51.597Z,1014.93
2023-09-23T05:09:52.431Z,1014.94
2023-09-23T05:10:53.262Z,1014.93
2023-09-23T05:11:54.079Z,1014.97
2023-09-23T05:12:54.888Z,1014.97
2023-09-23T05:13:55.852Z,1014.96
2023-09-23T05:14:56.623Z,1014.94
2023-09-23T05:15:57.507Z,1014.92
2023-09-23T05:16:58.284Z,1014.94
2023-09-23T05:17:59.235Z,1014.94
2023-09-23T05:19:00.135Z,1014.96
2023-09-23T05:20:00.939Z,1014.99
2023-09-23T05:21:01.763Z,1015.00
2023-09-23T05:22:02.556Z,1014.99
2023-09-23T05:23:03.408Z,1015.01
2023-09-23T05:24:04.226Z,1015.03
2023-09-23T05:25:05.030Z,1015.04
2023-09-23T05:26:05.914Z,1015.07
2023-09-23T05:27:06.850Z,1015.08
2023-09-23T05:28:10.082Z,1015.08
2023-09-23T05:29:08.288Z,1015.11
2023-09-23T05:30:09.111Z,1015.12
2023-09-23T05:31:09.948Z,1015.12
2023-09-23T05:32:10.813Z,1015.13
2023-09-23T05:33:11.706Z,1015.15
2023-09-23T05:34:12.547Z,1015.17
2023-09-23T05:35:13.468Z,1015.17
2023-09-23T05:36:14.302Z,1015.18
2023-09-23T05:37:15.128Z,1015.22
2023-09-23T05:38:16.001Z,1015.22
2023-09-23T05:39:16.811Z,1015.25
2023-09-23T05:40:17.634Z,1015.28
2023-09-23T05:41:18.519Z,1015.27
2023-09-23T05:42:19.369Z,1015.28
2023-09-23T05:43:20.198Z,1015.29
2023-09-23T05:44:21.124Z,1015.30
2023-09-23T05:45:21.929Z,1015.32
2023-09-23T05:46:22.772Z,1015.35
2023-09-23T05:47:23.610Z,1015.33
2023-09-23T05:48:24.453Z,1015.35
2023-09-23T05:49:25.235Z,1015.37
2023-09-23T05:50:26.133Z,1015.36
2023-09-23T05:51:26.917Z,1015.38
2023-09-23T05:52:27.745Z,1015.39
2023-09-23T05:53:28.580Z,1015.40
2023-09-23T05:54:29.384Z,1015.42
2023-09-23T05:55:30.199Z,1015.43
2023-09-23T05:56:31.048Z,1015.45
2023-09-23T05:57:31.855Z,1015.49
2023-09-23T05:58:32.686Z,1015.51
2023-09-23T05:59:33.547Z,1015.55
2023-09-23T06:00:34.404Z,1015.56
2023-09-23T06:01:35.253Z,1015.60
2023-09-23T06:02:36.109Z,1015.62
2023-09-23T06:03:36.978Z,1015.65
2023-09-23T06:04:37.854Z,1015.68
2023-09-23T06:05:38.664Z,1015.71
2023-09-23T06:06:39.524Z,1015.75
2023-09-23T06:07:40.308Z,1015.79
2023-09-23T06:08:41.160Z,1015.80
2023-09-23T06:09:41.956Z,1015.83
2023-09-23T06:10:42.803Z,1015.85
2023-09-23T06:11:43.618Z,1015.87
2023-09-23T06:12:44.461Z,1015.90
2023-09-23T06:13:45.554Z,1015.93
2023-09-23T06:14:46.065Z,1015.96
2023-09-23T06:15:46.859Z,1015.98
2023-09-23T06:16:47.740Z,1015.98
2023-09-23T06:17:48.661Z,1016.00
2023-09-23T06:18:49.532Z,1016.03
2023-09-23T06:19:50.377Z,1016.04
2023-09-23T06:20:51.181Z,1016.05
2023-09-23T06:21:51.997Z,1016.05
2023-09-23T06:22:52.839Z,1016.07
2023-09-23T06:23:53.783Z,1016.08
2023-09-23T06:24:54.605Z,1016.08
2023-09-23T06:25:55.539Z,1016.07
2023-09-23T06:26:56.327Z,1016.07
2023-09-23T06:27:57.146Z,1016.09
2023-09-23T06:28:58.090Z,1016.09
2023-09-23T06:29:58.973Z,1016.08
2023-09-23T06:30:59.775Z,1016.12
2023-09-23T06:32:00.572Z,1016.15
2023-09-23T06:33:01.407Z,1016.16
2023-09-23T06:34:02.210Z,1016.17
2023-09-23T06:35:03.074Z,1016.16
2023-09-23T06:36:03.850Z,1016.16
2023-09-23T06:37:04.666Z,1016.15
2023-09-23T06:38:05.543Z,1016.17
2023-09-23T06:39:06.376Z,1016.21
2023-09-23T06:40:07.195Z,1016.22
2023-09-23T06:41:08.035Z,1016.23
2023-09-23T06:42:08.870Z,1016.25
2023-09-23T06:43:09.711Z,1016.26
2023-09-23T06:44:10.587Z,1016.28
2023-09-23T06:45:11.380Z,1016.30
2023-09-23T06:46:12.191Z,1016.32
2023-09-23T06:47:13.024Z,1016.34
2023-09-23T06:48:13.907Z,1016.32
2023-09-23T06:49:14.705Z,1016.33
2023-09-23T06:50:15.546Z,1016.35
2023-09-23T06:51:16.438Z,1016.36
2023-09-23T06:52:17.254Z,1016.36
2023-09-23T06:53:18.174Z,1016.38
2023-09-23T06:54:18.959Z,1016.41
2023-09-23T06:55:19.790Z,1016.42
2023-09-23T06:56:20.618Z,1016.46
2023-09-23T06:57:21.437Z,1016.46
2023-09-23T06:58:22.260Z,1016.48
2023-09-23T06:59:23.185Z,1016.51
2023-09-23T07:00:24.009Z,1016.54
2023-09-23T07:01:24.830Z,1016.56
2023-09-23T07:02:25.798Z,1016.58
2023-09-23T07:03:26.323Z,1016.59
2023-09-23T07:04:26.788Z,1016.59
2023-09-23T07:05:27.616Z,1016.58
2023-09-23T07:06:28.423Z,1016.60
2023-09-23T07:07:29.257Z,1016.60
2023-09-23T07:08:30.102Z,1016.63
2023-09-23T07:09:30.902Z,1016.65
2023-09-23T07:10:31.717Z,1016.67
2023-09-23T07:11:32.552Z,1016.69
2023-09-23T07:12:33.409Z,1016.72
2023-09-23T07:13:34.216Z,1016.74
2023-09-23T07:14:35.056Z,1016.75
2023-09-23T07:15:35.885Z,1016.78
2023-09-23T07:16:36.730Z,1016.78
2023-09-23T07:17:37.615Z,1016.83
2023-09-23T07:18:38.049Z,1016.82
2023-09-23T07:19:38.900Z,1016.84
2023-09-23T07:20:39.751Z,1016.86
2023-09-23T07:21:40.557Z,1016.87
2023-09-23T07:22:41.380Z,1016.90
2023-09-23T07:23:42.196Z,1016.93
2023-09-23T07:24:43.020Z,1016.96
2023-09-23T07:25:43.844Z,1016.99
2023-09-23T07:26:44.691Z,1016.99
2023-09-23T07:27:45.510Z,1017.01
2023-09-23T07:28:46.339Z,1017.03
2023-09-23T07:29:47.150Z,1017.05
2023-09-23T07:30:48.008Z,1017.09
2023-09-23T07:31:48.847Z,1017.12
2023-09-23T07:32:49.680Z,1017.15
2023-09-23T07:33:50.628Z,1017.21
2023-09-23T07:34:51.455Z,1017.23
2023-09-23T07:35:52.318Z,1017.25
2023-09-23T07:36:53.135Z,1017.28
2023-09-23T07:37:53.964Z,1017.30
2023-09-23T07:38:54.819Z,1017.31
2023-09-23T07:39:55.657Z,1017.34
2023-09-23T07:40:56.516Z,1017.35
2023-09-23T07:41:57.358Z,1017.36
2023-09-23T07:42:58.184Z,1017.37
2023-09-23T07:43:59.070Z,1017.36
2023-09-23T07:44:59.928Z,1017.37
2023-09-23T07:46:00.816Z,1017.36
2023-09-23T07:47:01.676Z,1017.36
2023-09-23T07:48:02.542Z,1017.35
2023-09-23T07:49:05.593Z,1017.36
2023-09-23T07:50:04.053Z,1017.36
2023-09-23T07:51:04.835Z,1017.39
2023-09-23T07:52:05.662Z,1017.39
2023-09-23T07:53:06.509Z,1017.41
2023-09-23T07:54:07.305Z,1017.44
2023-09-23T07:55:08.140Z,1017.47
2023-09-23T07:56:08.978Z,1017.50
2023-09-23T07:57:09.801Z,1017.50
2023-09-23T07:58:10.598Z,1017.52
2023-09-23T07:59:11.443Z,1017.53
2023-09-23T08:00:12.293Z,1017.53
2023-09-23T08:01:13.104Z,1017.55
2023-09-23T08:02:14.004Z,1017.57
2023-09-23T08:03:14.919Z,1017.59
2023-09-23T08:04:15.851Z,1017.61
2023-09-23T08:05:16.762Z,1017.63
2023-09-23T08:06:17.555Z,1017.68
2023-09-23T08:07:18.386Z,1017.69
2023-09-23T08:08:19.263Z,1017.71
2023-09-23T08:09:20.058Z,1017.70
2023-09-23T08:10:20.885Z,1017.72
2023-09-23T08:11:21.737Z,1017.72
2023-09-23T08:12:22.538Z,1017.73
2023-09-23T08:13:23.997Z,1017.74
2023-09-23T08:14:23.993Z,1017.73
2023-09-23T08:15:24.796Z,1017.73
2023-09-23T08:16:25.669Z,1017.74
2023-09-23T08:17:26.562Z,1017.77
2023-09-23T08:18:27.421Z,1017.80
2023-09-23T08:19:28.302Z,1017.85
2023-09-23T08:20:29.195Z,1017.87
2023-09-23T08:21:30.003Z,1017.89
2023-09-23T08:22:30.836Z,1017.88
2023-09-23T08:23:31.792Z,1017.92
2023-09-23T08:24:32.204Z,1017.93
2023-09-23T08:25:33.022Z,1017.95
2023-09-23T08:26:33.860Z,1017.93
2023-09-23T08:27:34.671Z,1017.95
2023-09-23T08:28:35.499Z,1017.95
2023-09-23T08:29:36.338Z,1017.95
2023-09-23T08:30:37.157Z,1017.96
2023-09-23T08:31:38.034Z,1017.97
2023-09-23T08:32:39.081Z,1017.99
2023-09-23T08:33:39.902Z,1018.01
2023-09-23T08:34:40.716Z,1018.03
2023-09-23T08:35:41.587Z,1018.04
2023-09-23T08:36:42.365Z,1018.06
2023-09-23T08:37:43.201Z,1018.06
2023-09-23T08:38:44.067Z,1018.09
2023-09-23T08:39:44.877Z,1018.10
2023-09-23T08:40:45.704Z,1018.10
2023-09-23T08:41:47.007Z,1018.11
2023-09-23T08:42:47.296Z,1018.11
2023-09-23T08:43:48.377Z,1018.10
2023-09-23T08:44:48.759Z,1018.12
2023-09-23T08:45:49.626Z,1018.13
2023-09-23T08:46:50.527Z,1018.14
2023-09-23T08:47:51.323Z,1018.13
2023-09-23T08:48:52.147Z,1018.15
2023-09-23T08:49:53.036Z,1018.15
2023-09-23T08:50:53.858Z,1018.15
2023-09-23T08:51:54.674Z,1018.19
2023-09-23T08:52:55.539Z,1018.19
2023-09-23T08:53:56.341Z,1018.23
2023-09-23T08:54:57.145Z,1018.23
2023-09-23T08:55:58.003Z,1018.26
2023-09-23T08:56:58.850Z,1018.27
2023-09-23T08:57:59.631Z,1018.29
2023-09-23T08:59:00.477Z,1018.31
2023-09-23T09:00:01.274Z,1018.30
2023-09-23T09:01:01.987Z,1018.32
2023-09-23T09:02:02.827Z,1018.33
2023-09-23T09:03:03.640Z,1018.34
2023-09-23T09:04:04.457Z,1018.34
2023-09-23T09:05:05.320Z,1018.34
2023-09-23T09:06:06.306Z,1018.34
2023-09-23T09:07:06.687Z,1018.33
2023-09-23T09:08:07.534Z,1018.33
2023-09-23T09:09:08.345Z,1018.30
2023-09-23T09:10:09.176Z,1018.28
2023-09-23T09:11:10.070Z,1018.29
2023-09-23T09:12:10.889Z,1018.26
2023-09-23T09:13:11.711Z,1018.24
2023-09-23T09:14:12.621Z,1018.22
2023-09-23T09:15:13.445Z,1018.25
2023-09-23T09:16:14.303Z,1018.26
2023-09-23T09:17:15.115Z,1018.28
2023-09-23T09:18:15.977Z,1018.28
2023-09-23T09:19:16.800Z,1018.28
2023-09-23T09:20:17.672Z,1018.29
2023-09-23T09:21:18.510Z,1018.29
2023-09-23T09:22:19.340Z,1018.30
2023-09-23T09:23:20.172Z,1018.32
2023-09-23T09:24:20.979Z,1018.30
2023-09-23T09:25:21.908Z,1018.31
2023-09-23T09:26:22.761Z,1018.35
2023-09-23T09:27:23.538Z,1018.37
2023-09-23T09:28:24.366Z,1018.40
2023-09-23T09:29:25.251Z,1018.41
2023-09-23T09:30:26.046Z,1018.43
2023-09-23T09:31:26.903Z,1018.43
2023-09-23T09:32:27.849Z,1018.43
2023-09-23T09:33:28.616Z,1018.44
2023-09-23T09:34:29.457Z,1018.41
2023-09-23T09:35:30.390Z,1018.44
2023-09-23T09:36:31.166Z,1018.43
2023-09-23T09:37:31.982Z,1018.44
2023-09-23T09:38:32.840Z,1018.44
2023-09-23T09:39:33.703Z,1018.45
2023-09-23T09:40:34.526Z,1018.48
2023-09-23T09:41:35.438Z,1018.48
2023-09-23T09:42:36.229Z,1018.50
2023-09-23T09:43:37.064Z,1018.51
2023-09-23T09:44:37.935Z,1018.52
2023-09-23T09:45:38.710Z,1018.54
2023-09-23T09:46:39.628Z,1018.53
2023-09-23T09:47:40.498Z,1018.51
2023-09-23T09:48:41.323Z,1018.49
2023-09-23T09:49:42.136Z,1018.49
2023-09-23T09:50:42.962Z,1018.50
2023-09-23T09:51:43.777Z,1018.50
2023-09-23T09:52:44.615Z,1018.50
2023-09-23T09:53:45.451Z,1018.50
2023-09-23T09:54:46.269Z,1018.51
2023-09-23T09:55:47.089Z,1018.50
2023-09-23T09:56:47.902Z,1018.52
2023-09-23T09:57:48.728Z,1018.54
2023-09-23T09:58:49.680Z,1018.56
2023-09-23T09:59:50.491Z,1018.56
2023-09-23T10:00:51.358Z,1018.55
2023-09-23T10:01:52.197Z,1018.56
2023-09-23T10:02:53.137Z,1018.58
2023-09-23T10:03:53.989Z,1018.59
2023-09-23T10:04:55.023Z,1018.62
2023-09-23T10:05:55.828Z,1018.61
2023-09-23T10:06:56.659Z,1018.64
2023-09-23T10:07:57.522Z,1018.65
2023-09-23T10:08:58.315Z,1018.65
2023-09-23T10:09:59.141Z,1018.64
2023-09-23T10:10:59.989Z,1018.64
2023-09-23T10:12:00.913Z,1018.65
2023-09-23T10:13:01.769Z,1018.65
2023-09-23T10:14:02.700Z,1018.65
2023-09-23T10:15:03.513Z,1018.66
2023-09-23T10:16:04.328Z,1018.65
2023-09-23T10:17:05.394Z,1018.64
2023-09-23T10:18:06.082Z,1018.66
2023-09-23T10:19:07.022Z,1018.66
2023-09-23T10:20:07.877Z,1018.66
2023-09-23T10:21:08.730Z,1018.65
2023-09-23T10:22:09.555Z,1018.65
2023-09-23T10:23:10.422Z,1018.64
2023-09-23T10:24:11.197Z,1018.65
2023-09-23T10:25:12.023Z,1018.69
2023-09-23T10:26:12.902Z,1018.68
2023-09-23T10:27:13.714Z,1018.66
2023-09-23T10:28:14.531Z,1018.65
2023-09-23T10:29:15.419Z,1018.67
2023-09-23T10:30:16.185Z,1018.64
2023-09-23T10:31:17.048Z,1018.66
2023-09-23T10:32:17.964Z,1018.64
2023-09-23T10:33:18.928Z,1018.65
2023-09-23T10:34:19.754Z,1018.65
2023-09-23T10:35:20.626Z,1018.68
2023-09-23T10:36:21.437Z,1018.71
2023-09-23T10:37:22.273Z,1018.73
2023-09-23T10:38:23.134Z,1018.73
2023-09-23T10:39:23.936Z,1018.73
2023-09-23T10:40:24.762Z,1018.72
2023-09-23T10:41:25.654Z,1018.74
2023-09-23T10:42:26.494Z,1018.73
2023-09-23T10:43:27.320Z,1018.74
2023-09-23T10:44:28.156Z,1018.76
2023-09-23T10:45:29.012Z,1018.76
2023-09-23T10:46:29.864Z,1018.77
2023-09-23T10:47:30.776Z,1018.78
2023-09-23T10:48:31.702Z,1018.80
2023-09-23T10:49:32.473Z,1018.79
2023-09-23T10:50:33.318Z,1018.80
2023-09-23T10:51:34.127Z,1018.83
2023-09-23T10:52:34.979Z,1018.84
2023-09-23T10:53:35.874Z,1018.86
2023-09-23T10:54:36.723Z,1018.83
2023-09-23T10:55:38.989Z,1018.85
2023-09-23T10:56:38.325Z,1018.87
2023-09-23T10:57:39.136Z,1018.88
2023-09-23T10:58:39.751Z,1018.86
2023-09-23T10:59:40.616Z,1018.89
2023-09-23T11:00:41.401Z,1018.91
2023-09-23T11:01:42.331Z,1018.90
2023-09-23T11:02:43.185Z,1018.90
2023-09-23T11:03:44.425Z,1018.89
2023-09-23T11:04:44.834Z,1018.89
2023-09-23T11:05:45.663Z,1018.88
2023-09-23T11:06:46.476Z,1018.86
2023-09-23T11:07:47.352Z,1018.86
2023-09-23T11:08:48.320Z,1018.84
2023-09-23T11:09:48.674Z,1018.83
2023-09-23T11:10:49.489Z,1018.83
2023-09-23T11:11:50.322Z,1018.85
2023-09-23T11:12:51.128Z,1018.86
2023-09-23T11:13:51.970Z,1018.87
2023-09-23T11:14:52.781Z,1018.88
2023-09-23T11:15:53.712Z,1018.90
2023-09-23T11:16:54.508Z,1018.90
2023-09-23T11:17:55.336Z,1018.91
2023-09-23T11:18:56.175Z,1018.91
2023-09-23T11:19:56.991Z,1018.91
2023-09-23T11:20:57.795Z,1018.90
2023-09-23T11:21:58.623Z,1018.90
2023-09-23T11:22:59.465Z,1018.87
2023-09-23T11:24:00.267Z,1018.88
2023-09-23T11:25:01.093Z,1018.89
2023-09-23T11:26:02.009Z,1018.90
2023-09-23T11:27:02.846Z,1018.92
2023-09-23T11:28:03.730Z,1018.93
2023-09-23T11:29:04.566Z,1018.93
2023-09-23T11:30:05.380Z,1018.91
2023-09-23T11:31:06.205Z,1018.88
2023-09-23T11:32:07.126Z,1018.85
2023-09-23T11:33:08.043Z,1018.83
2023-09-23T11:34:08.923Z,1018.85
2023-09-23T11:35:09.769Z,1018.85
2023-09-23T11:36:10.613Z,1018.84
2023-09-23T11:37:11.425Z,1018.85
2023-09-23T11:38:12.272Z,1018.86
2023-09-23T11:39:13.077Z,1018.89
2023-09-23T11:40:13.902Z,1018.91
2023-09-23T11:41:14.738Z,1018.92
2023-09-23T11:42:15.556Z,1018.92
2023-09-23T11:43:16.380Z,1018.90
2023-09-23T11:44:17.221Z,1018.90
2023-09-23T11:45:18.019Z,1018.88
2023-09-23T11:46:18.853Z,1018.89
2023-09-23T11:47:19.756Z,1018.88
2023-09-23T11:48:20.528Z,1018.89
2023-09-23T11:49:21.359Z,1018.89
2023-09-23T11:50:22.278Z,1018.91
2023-09-23T11:51:23.082Z,1018.93
2023-09-23T11:52:23.899Z,1018.92
2023-09-23T11:53:24.752Z,1018.93
2023-09-23T11:54:25.586Z,1018.94
2023-09-23T11:55:26.380Z,1018.95
2023-09-23T11:56:27.271Z,1018.96
2023-09-23T11:57:28.069Z,1018.95
2023-09-23T11:58:28.889Z,1018.94
2023-09-23T11:59:29.728Z,1018.94
2023-09-23T12:00:30.778Z,1018.92
2023-09-23T12:01:31.116Z,1018.92
2023-09-23T12:02:32.021Z,1018.90
2023-09-23T12:03:33.034Z,1018.88
2023-09-23T12:04:33.496Z,1018.89
2023-09-23T12:05:34.384Z,1018.89
2023-09-23T12:06:35.186Z,1018.89
2023-09-23T12:07:36.013Z,1018.91
2023-09-23T12:08:36.885Z,1018.91
2023-09-23T12:09:37.692Z,1018.94
2023-09-23T12:10:38.525Z,1018.95
2023-09-23T12:11:39.344Z,1018.97
2023-09-23T12:12:40.173Z,1018.96
2023-09-23T12:13:40.994Z,1018.97
2023-09-23T12:14:41.807Z,1018.98
2023-09-23T12:15:42.668Z,1019.02